createdAt,value
2022-07-26T00:00:57.593Z,100330.53
2022-07-26T00:03:24.238Z,100317.44
2022-07-26T00:05:53.209Z,100317.44
2022-07-26T00:08:19.653Z,100314.97
2022-07-26T00:10:50.131Z,100311.59
2022-07-26T00:13:21.060Z,100306.06
2022-07-26T00:15:49.160Z,100308.56
2022-07-26T00:18:17.093Z,100301.84
2022-07-26T00:23:29.306Z,100308.22
2022-07-26T00:28:42.799Z,100319.91
2022-07-26T00:31:09.729Z,100310.16
2022-07-26T00:33:36.150Z,100317.13
2022-07-26T00:36:05.214Z,100309.25
2022-07-26T00:38:31.574Z,100324.88
2022-07-26T00:40:58.233Z,100325.97
2022-07-26T00:43:24.747Z,100325.13
2022-07-26T00:45:51.313Z,100320.41
2022-07-26T00:48:18.284Z,100346.28
2022-07-26T00:50:44.963Z,100335.97
2022-07-26T00:53:11.368Z,100330.13
2022-07-26T00:55:37.958Z,100329.53
2022-07-26T00:58:06.312Z,100321.72
2022-07-26T01:00:33.021Z,100327.53
2022-07-26T01:03:02.609Z,100340.53
2022-07-26T01:05:29.313Z,100333.78
2022-07-26T01:07:56.356Z,100329.03
2022-07-26T01:10:22.831Z,100327.56
2022-07-26T01:12:49.435Z,100336.16
2022-07-26T01:15:16.735Z,100328.63
2022-07-26T01:17:43.676Z,100341.13
2022-07-26T01:20:14.837Z,100337.44
2022-07-26T01:22:43.943Z,100339.97
2022-07-26T01:25:10.700Z,100345.50
2022-07-26T01:27:39.417Z,100358.53
2022-07-26T01:30:11.591Z,100334.66
2022-07-26T01:32:38.775Z,100328.81
2022-07-26T01:35:07.478Z,100340.72
2022-07-26T01:37:36.494Z,100351.84
2022-07-26T01:40:03.969Z,100332.09
2022-07-26T01:42:31.315Z,100350.44
2022-07-26T01:44:57.802Z,100351.53
2022-07-26T01:47:24.285Z,100343.13
2022-07-26T01:49:50.979Z,100353.91
2022-07-26T01:52:18.740Z,100343.63
2022-07-26T01:54:45.259Z,100345.25
2022-07-26T01:57:14.089Z,100349.09
2022-07-26T01:59:40.578Z,100361.91
2022-07-26T02:02:08.080Z,100357.38
2022-07-26T02:04:53.549Z,100355.72
2022-07-26T02:07:22.302Z,100356.22
2022-07-26T02:09:48.873Z,100362.91
2022-07-26T02:12:18.155Z,100357.81
2022-07-26T02:14:44.618Z,100355.59
2022-07-26T02:17:11.384Z,100373.44
2022-07-26T02:19:37.979Z,100361.41
2022-07-26T02:22:04.848Z,100354.13
2022-07-26T02:24:31.319Z,100352.16
2022-07-26T02:26:59.381Z,100364.06
2022-07-26T02:29:26.331Z,100368.16
2022-07-26T02:31:53.447Z,100364.28
2022-07-26T02:34:20.253Z,100363.09
2022-07-26T02:36:46.757Z,100357.97
2022-07-26T02:39:13.836Z,100347.94
2022-07-26T02:41:40.693Z,100365.00
2022-07-26T02:44:10.696Z,100368.88
2022-07-26T02:46:38.112Z,100364.38
2022-07-26T02:49:04.889Z,100371.00
2022-07-26T02:51:31.345Z,100371.59
2022-07-26T02:53:57.746Z,100384.88
2022-07-26T02:56:24.380Z,100382.88
2022-07-26T02:58:50.905Z,100375.09
2022-07-26T03:01:17.372Z,100374.19
2022-07-26T03:03:50.564Z,100374.19
2022-07-26T03:06:18.383Z,100375.84
2022-07-26T03:08:45.035Z,100368.66
2022-07-26T03:11:12.235Z,100375.31
2022-07-26T03:13:38.857Z,100375.28
2022-07-26T03:16:06.809Z,100377.53
2022-07-26T03:18:33.540Z,100367.53
2022-07-26T03:20:59.894Z,100371.47
2022-07-26T03:23:26.461Z,100364.22
2022-07-26T03:25:53.012Z,100388.72
2022-07-26T03:28:19.801Z,100381.19
2022-07-26T03:30:48.685Z,100391.53
2022-07-26T03:33:15.139Z,100383.81
2022-07-26T03:35:41.604Z,100389.06
2022-07-26T03:38:10.592Z,100387.13
2022-07-26T03:40:37.059Z,100383.81
2022-07-26T03:43:03.533Z,100376.56
2022-07-26T03:45:29.941Z,100377.34
2022-07-26T03:47:56.735Z,100377.59
2022-07-26T03:50:23.293Z,100388.09
2022-07-26T03:52:51.762Z,100363.16
2022-07-26T03:55:36.648Z,100391.97
2022-07-26T03:58:03.078Z,100385.84
2022-07-26T04:00:29.508Z,100389.16
2022-07-26T04:02:56.068Z,100373.34
2022-07-26T04:05:23.720Z,100379.41
2022-07-26T04:07:53.636Z,100386.28
2022-07-26T04:10:21.683Z,100388.47
2022-07-26T04:12:48.466Z,100400.13
2022-07-26T04:15:16.914Z,100395.94
2022-07-26T04:17:43.707Z,100391.81
2022-07-26T04:20:11.348Z,100386.28
2022-07-26T04:22:38.945Z,100388.47
2022-07-26T04:25:09.650Z,100409.53
2022-07-26T04:27:37.495Z,100403.19
2022-07-26T04:30:14.132Z,100401.22
2022-07-26T04:32:41.909Z,100405.13
2022-07-26T04:35:11.200Z,100423.16
2022-07-26T04:37:42.628Z,100408.44
2022-07-26T04:40:10.656Z,100407.97
2022-07-26T04:42:39.326Z,100406.88
2022-07-26T04:45:08.569Z,100404.69
2022-07-26T04:47:42.911Z,100417.97
2022-07-26T04:50:10.910Z,100404.69
2022-07-26T04:52:37.455Z,100401.13
2022-07-26T04:55:07.618Z,100416.38
2022-07-26T04:57:34.460Z,100429.66
2022-07-26T05:00:20.368Z,100413.59
2022-07-26T05:02:49.578Z,100449.31
2022-07-26T05:05:18.686Z,100436.88
2022-07-26T05:07:47.662Z,100435.22
2022-07-26T05:10:15.598Z,100438.78
2022-07-26T05:12:42.352Z,100440.75
2022-07-26T05:15:14.334Z,100444.63
2022-07-26T05:17:45.540Z,100453.19
2022-07-26T05:20:15.663Z,100441.84
2022-07-26T05:22:42.303Z,100446.31
2022-07-26T05:25:09.232Z,100450.41
2022-07-26T05:27:35.768Z,100454.03
2022-07-26T05:30:04.563Z,100452.94
2022-07-26T05:32:31.015Z,100446.63
2022-07-26T05:34:57.495Z,100452.50
2022-07-26T05:37:23.955Z,100457.44
2022-07-26T05:39:50.661Z,100463.41
2022-07-26T05:42:17.245Z,100461.19
2022-07-26T05:44:46.215Z,100475.34
2022-07-26T05:47:12.847Z,100472.56
2022-07-26T05:49:41.701Z,100462.63
2022-07-26T05:52:09.010Z,100470.75
2022-07-26T05:54:36.210Z,100486.00
2022-07-26T05:57:03.180Z,100470.75
2022-07-26T05:59:29.621Z,100470.47
2022-07-26T06:01:56.795Z,100480.78
2022-07-26T06:04:25.041Z,100474.91
2022-07-26T06:06:54.582Z,100486.56
2022-07-26T06:09:22.282Z,100478.25
2022-07-26T06:11:48.692Z,100483.03
2022-07-26T06:14:17.290Z,100482.19
2022-07-26T06:16:43.836Z,100486.69
2022-07-26T06:19:10.315Z,100481.13
2022-07-26T06:21:36.815Z,100486.69
2022-07-26T06:24:03.527Z,100499.34
2022-07-26T06:26:29.924Z,100495.53
2022-07-26T06:28:56.436Z,100502.84
2022-07-26T06:31:23.227Z,100491.91
2022-07-26T06:33:49.797Z,100500.91
2022-07-26T06:36:18.530Z,100510.91
2022-07-26T06:38:48.933Z,100507.16
2022-07-26T06:41:18.058Z,100488.13
2022-07-26T06:43:49.156Z,100499.97
2022-07-26T06:46:20.937Z,100511.59
2022-07-26T06:48:52.664Z,100498.38
2022-07-26T06:51:23.636Z,100486.56
2022-07-26T06:53:53.155Z,100488.06
2022-07-26T06:56:19.720Z,100491.47
2022-07-26T06:58:47.087Z,100479.72
2022-07-26T07:01:51.307Z,100489.13
2022-07-26T07:04:00.277Z,100489.84
2022-07-26T07:06:29.132Z,100505.91
2022-07-26T07:08:55.602Z,100519.72
2022-07-26T07:11:23.108Z,100560.75
2022-07-26T07:13:52.093Z,100533.78
2022-07-26T07:16:18.575Z,100543.38
2022-07-26T07:18:45.130Z,100545.25
2022-07-26T07:21:13.662Z,100534.84
2022-07-26T07:23:40.060Z,100552.53
2022-07-26T07:26:06.563Z,100611.69
2022-07-26T07:28:34.157Z,100596.84
2022-07-26T07:31:00.975Z,100557.47
2022-07-26T07:33:32.154Z,100549.03
2022-07-26T07:36:10.483Z,100601.53
2022-07-26T07:38:37.358Z,100603.88
2022-07-26T07:41:06.316Z,100635.22
2022-07-26T07:43:33.871Z,100619.25
2022-07-26T07:46:00.273Z,100635.38
2022-07-26T07:48:26.839Z,100631.31
2022-07-26T07:50:53.287Z,100611.13
2022-07-26T07:53:20.048Z,100539.19
2022-07-26T07:55:49.045Z,100626.97
2022-07-26T07:58:17.214Z,100632.00
2022-07-26T08:00:45.650Z,100593.44
2022-07-26T08:03:13.264Z,100574.38
2022-07-26T08:05:45.089Z,100548.25
2022-07-26T08:08:11.543Z,100555.81
2022-07-26T08:10:41.788Z,100591.03
2022-07-26T08:13:15.600Z,100562.63
2022-07-26T08:15:47.709Z,100615.34
2022-07-26T08:18:15.911Z,100622.88
2022-07-26T08:20:43.305Z,100636.28
2022-07-26T08:23:10.211Z,100617.00
2022-07-26T08:25:50.097Z,100635.72
2022-07-26T08:28:38.044Z,100646.81
2022-07-26T08:31:09.097Z,100637.69
2022-07-26T08:33:35.646Z,100657.81
2022-07-26T08:36:07.101Z,100609.75
2022-07-26T08:38:33.641Z,100667.00
2022-07-26T08:41:00.165Z,100641.06
2022-07-26T08:43:26.794Z,100672.81
2022-07-26T08:45:59.550Z,100601.66
2022-07-26T08:48:30.990Z,100672.88
2022-07-26T08:51:00.101Z,100629.03
2022-07-26T08:53:29.411Z,100632.94
2022-07-26T08:56:07.790Z,100664.22
2022-07-26T08:58:37.239Z,100687.38
2022-07-26T09:01:06.302Z,100687.63
2022-07-26T09:03:32.905Z,100673.03
2022-07-26T09:06:18.224Z,100714.19
2022-07-26T09:08:46.940Z,100660.06
2022-07-26T09:11:30.125Z,100707.75
2022-07-26T09:14:05.497Z,100696.06
2022-07-26T09:16:37.312Z,100686.56
2022-07-26T09:19:17.567Z,100671.47
2022-07-26T09:21:49.408Z,100664.13
2022-07-26T09:24:31.299Z,100689.47
2022-07-26T09:27:00.069Z,100714.19
2022-07-26T09:29:28.477Z,100686.50
2022-07-26T09:32:16.925Z,100641.34
2022-07-26T09:34:53.234Z,100638.97
2022-07-26T09:37:34.839Z,100659.22
2022-07-26T09:40:04.843Z,100625.47
2022-07-26T09:42:31.309Z,100670.28
2022-07-26T09:44:58.327Z,100655.25
2022-07-26T09:47:40.366Z,100639.34
2022-07-26T09:50:21.610Z,100667.78
2022-07-26T09:53:04.660Z,100648.59
2022-07-26T09:55:40.665Z,100605.03
2022-07-26T09:58:15.540Z,100647.66
2022-07-26T10:00:44.609Z,100616.75
2022-07-26T10:03:11.675Z,100637.38
2022-07-26T10:05:40.708Z,100603.59
2022-07-26T10:08:08.133Z,100610.56
2022-07-26T10:10:46.302Z,100619.25
2022-07-26T10:13:13.307Z,100583.22
2022-07-26T10:15:47.235Z,100607.22
2022-07-26T10:18:39.178Z,100603.91
2022-07-26T10:21:20.670Z,100617.00
2022-07-26T10:23:51.484Z,100659.75
2022-07-26T10:26:33.224Z,100618.97
2022-07-26T10:31:47.883Z,100613.97
2022-07-26T10:34:35.611Z,100584.38
2022-07-26T10:37:04.501Z,100566.53
2022-07-26T10:39:31.273Z,100593.59
2022-07-26T10:42:01.133Z,100624.00
2022-07-26T10:44:29.923Z,100614.97
2022-07-26T10:47:19.810Z,100595.91
2022-07-26T10:49:58.992Z,100671.72
2022-07-26T10:52:30.697Z,100729.44
2022-07-26T10:54:57.221Z,100659.00
2022-07-26T10:57:28.088Z,100672.19
2022-07-26T10:59:57.510Z,100692.09
2022-07-26T11:02:33.859Z,100707.22
2022-07-26T11:05:14.250Z,100698.88
2022-07-26T11:07:56.856Z,100692.16
2022-07-26T11:10:31.972Z,100649.03
2022-07-26T11:13:07.207Z,100716.47
2022-07-26T11:15:35.572Z,100704.97
2022-07-26T11:18:14.713Z,100697.88
2022-07-26T11:20:43.061Z,100736.69
2022-07-26T11:23:33.068Z,100747.16
2022-07-26T11:26:12.971Z,100732.94
2022-07-26T11:29:06.416Z,100725.72
2022-07-26T11:31:49.542Z,100741.72
2022-07-26T11:34:24.970Z,100740.16
2022-07-26T11:36:54.169Z,100730.91
2022-07-26T11:39:26.099Z,100734.88
2022-07-26T11:42:04.629Z,100697.44
2022-07-26T11:44:36.531Z,100707.78
2022-07-26T11:47:17.171Z,100651.09
2022-07-26T11:50:00.095Z,100635.94
2022-07-26T11:52:32.006Z,100725.13
2022-07-26T11:55:01.347Z,100715.13
2022-07-26T11:57:31.997Z,100690.31
2022-07-26T12:00:03.943Z,100678.88
2022-07-26T12:02:30.840Z,100645.63
2022-07-26T12:05:18.294Z,100617.16
2022-07-26T12:08:05.430Z,100673.41
2022-07-26T12:10:39.259Z,100695.75
2022-07-26T12:13:14.987Z,100644.66
2022-07-26T12:15:59.928Z,100657.53
2022-07-26T12:18:28.638Z,100618.97
2022-07-26T12:21:09.795Z,100624.84
2022-07-26T12:23:49.914Z,100612.03
2022-07-26T12:26:25.185Z,100607.81
2022-07-26T12:28:52.560Z,100596.06
2022-07-26T12:31:25.859Z,100631.81
2022-07-26T12:33:52.828Z,100640.22
2022-07-26T12:36:27.599Z,100616.16
2022-07-26T12:38:56.202Z,100568.50
2022-07-26T12:41:39.546Z,100612.13
2022-07-26T12:44:07.026Z,100636.75
2022-07-26T12:46:36.646Z,100609.38
2022-07-26T12:49:04.469Z,100596.53
2022-07-26T12:51:33.624Z,100563.81
2022-07-26T12:54:00.043Z,100552.38
2022-07-26T12:56:26.552Z,100599.63
2022-07-26T12:58:54.107Z,100565.78
2022-07-26T13:01:23.192Z,100603.22
2022-07-26T13:03:49.715Z,100600.41
2022-07-26T13:06:16.154Z,100578.06
2022-07-26T13:08:42.677Z,100564.09
2022-07-26T13:11:12.403Z,100587.59
2022-07-26T13:13:39.333Z,100561.91
2022-07-26T13:16:11.588Z,100573.41
2022-07-26T13:18:40.776Z,100641.59
2022-07-26T13:21:07.250Z,100613.94
2022-07-26T13:23:38.277Z,100573.94
2022-07-26T13:26:09.131Z,100532.41
2022-07-26T13:28:42.277Z,100529.88
2022-07-26T13:31:09.226Z,100548.59
2022-07-26T13:33:38.002Z,100550.28
2022-07-26T13:36:06.886Z,100588.25
2022-07-26T13:38:33.595Z,100594.16
2022-07-26T13:41:02.240Z,100560.03
2022-07-26T13:43:33.142Z,100583.22
2022-07-26T13:45:59.659Z,100557.81
2022-07-26T13:48:26.158Z,100543.00
2022-07-26T13:51:00.994Z,100572.63
2022-07-26T13:53:32.324Z,100586.03
2022-07-26T13:55:58.773Z,100554.78
2022-07-26T13:58:27.610Z,100565.94
2022-07-26T14:00:58.881Z,100570.94
2022-07-26T14:03:26.186Z,100596.03
2022-07-26T14:05:52.832Z,100564.72
2022-07-26T14:08:19.650Z,100557.38
2022-07-26T14:10:46.214Z,100561.19
2022-07-26T14:13:15.183Z,100568.97
2022-07-26T14:15:41.643Z,100560.31
2022-07-26T14:18:10.866Z,100542.97
2022-07-26T14:20:37.879Z,100568.47
2022-07-26T14:23:04.437Z,100583.06
2022-07-26T14:25:33.318Z,100587.53
2022-07-26T14:28:02.691Z,100571.94
2022-07-26T14:30:29.193Z,100571.38
2022-07-26T14:32:55.808Z,100594.28
2022-07-26T14:35:22.287Z,100552.91
2022-07-26T14:37:48.744Z,100526.13
2022-07-26T14:40:19.790Z,100520.53
2022-07-26T14:42:46.583Z,100537.50
2022-07-26T14:45:16.629Z,100560.69
2022-07-26T14:47:43.977Z,100575.53
2022-07-26T14:50:11.988Z,100578.94
2022-07-26T14:52:44.743Z,100545.38
2022-07-26T14:55:11.901Z,100559.06
2022-07-26T14:57:41.586Z,100590.88
2022-07-26T15:00:14.111Z,100602.09
2022-07-26T15:02:42.513Z,100592.81
2022-07-26T15:05:10.197Z,100569.56
2022-07-26T15:07:36.707Z,100583.28
2022-07-26T15:10:04.552Z,100582.50
2022-07-26T15:12:31.048Z,100572.44
2022-07-26T15:14:57.569Z,100554.31
2022-07-26T15:17:24.343Z,100538.41
2022-07-26T15:19:50.748Z,100521.63
2022-07-26T15:22:19.350Z,100516.63
2022-07-26T15:24:48.115Z,100539.31
2022-07-26T15:27:14.786Z,100483.69
2022-07-26T15:29:41.185Z,100496.00
2022-07-26T15:32:10.425Z,100506.28
2022-07-26T15:34:36.993Z,100490.31
2022-07-26T15:37:03.712Z,100504.53
2022-07-26T15:39:30.361Z,100491.13
2022-07-26T15:41:56.810Z,100537.75
2022-07-26T15:44:25.589Z,100531.03
2022-07-26T15:46:52.887Z,100493.56
2022-07-26T15:49:19.667Z,100511.22
2022-07-26T15:51:46.340Z,100497.22
2022-07-26T15:54:15.874Z,100509.00
2022-07-26T15:56:43.398Z,100497.84
2022-07-26T15:59:09.867Z,100511.63
2022-07-26T16:01:36.635Z,100535.66
2022-07-26T16:04:06.040Z,100542.94
2022-07-26T16:06:35.391Z,100525.59
2022-07-26T16:09:18.927Z,100514.22
2022-07-26T16:11:47.199Z,100526.47
2022-07-26T16:14:13.920Z,100491.00
2022-07-26T16:16:42.939Z,100491.84
2022-07-26T16:19:10.100Z,100543.53
2022-07-26T16:21:37.777Z,100479.81
2022-07-26T16:24:07.528Z,100485.13
2022-07-26T16:26:34.299Z,100466.34
2022-07-26T16:29:00.960Z,100466.09
2022-07-26T16:31:27.817Z,100491.28
2022-07-26T16:33:57.258Z,100499.66
2022-07-26T16:36:23.877Z,100489.34
2022-07-26T16:38:50.276Z,100515.84
2022-07-26T16:41:16.852Z,100478.47
2022-07-26T16:43:43.381Z,100491.03
2022-07-26T16:46:09.986Z,100476.53
2022-07-26T16:48:36.636Z,100478.75
2022-07-26T16:51:03.443Z,100470.09
2022-07-26T16:53:29.821Z,100468.09
2022-07-26T16:55:56.304Z,100500.19
2022-07-26T16:58:22.918Z,100539.03
2022-07-26T17:00:49.494Z,100539.84
2022-07-26T17:03:19.321Z,100525.00
2022-07-26T17:05:46.739Z,100507.41
2022-07-26T17:08:15.555Z,100519.94
2022-07-26T17:10:42.837Z,100553.50
2022-07-26T17:13:09.293Z,100491.41
2022-07-26T17:15:36.410Z,100538.41
2022-07-26T17:18:05.300Z,100557.44
2022-07-26T17:20:31.871Z,100537.94
2022-07-26T17:22:58.274Z,100517.00
2022-07-26T17:25:24.893Z,100489.41
2022-07-26T17:27:51.348Z,100495.00
2022-07-26T17:30:17.985Z,100468.22
2022-07-26T17:32:44.680Z,100490.56
2022-07-26T17:35:11.302Z,100502.59
2022-07-26T17:37:37.792Z,100492.28
2022-07-26T17:40:07.803Z,100476.66
2022-07-26T17:42:39.976Z,100485.03
2022-07-26T17:45:07.359Z,100451.56
2022-07-26T17:47:33.958Z,100444.88
2022-07-26T17:50:34.183Z,100429.53
2022-07-26T17:52:50.387Z,100402.72
2022-07-26T17:55:20.151Z,100406.34
2022-07-26T17:57:47.879Z,100376.25
2022-07-26T18:00:16.759Z,100380.72
2022-07-26T18:02:43.260Z,100370.41
2022-07-26T18:05:11.374Z,100395.81
2022-07-26T18:07:39.534Z,100375.16
2022-07-26T18:10:12.749Z,100379.91
2022-07-26T18:12:39.140Z,100354.00
2022-07-26T18:15:07.257Z,100369.59
2022-07-26T18:17:33.690Z,100382.97
2022-07-26T18:20:02.804Z,100353.97
2022-07-26T18:22:29.229Z,100361.75
2022-07-26T18:24:55.687Z,100347.25
2022-07-26T18:27:22.323Z,100339.47
2022-07-26T18:29:49.482Z,100364.53
2022-07-26T18:32:15.957Z,100408.53
2022-07-26T18:34:52.250Z,100378.75
2022-07-26T18:37:20.225Z,100418.25
2022-07-26T18:39:46.803Z,100432.97
2022-07-26T18:42:13.314Z,100396.47
2022-07-26T18:44:42.129Z,100411.13
2022-07-26T18:47:09.674Z,100413.91
2022-07-26T18:49:36.299Z,100444.50
2022-07-26T18:52:07.499Z,100445.56
2022-07-26T18:54:35.420Z,100401.84
2022-07-26T18:57:01.860Z,100417.94
2022-07-26T18:59:29.694Z,100431.56
2022-07-26T19:01:57.757Z,100438.75
2022-07-26T19:04:25.068Z,100417.56
2022-07-26T19:06:51.609Z,100422.47
2022-07-26T19:09:21.160Z,100430.13
2022-07-26T19:11:47.692Z,100409.00
2022-07-26T19:14:14.206Z,100431.69
2022-07-26T19:16:40.844Z,100428.56
2022-07-26T19:19:07.400Z,100419.34
2022-07-26T19:21:34.041Z,100425.09
2022-07-26T19:24:00.597Z,100392.47
2022-07-26T19:26:30.486Z,100374.94
2022-07-26T19:28:57.228Z,100380.97
2022-07-26T19:31:23.977Z,100375.66
2022-07-26T19:33:50.597Z,100414.13
2022-07-26T19:36:18.204Z,100402.13
2022-07-26T19:38:57.044Z,100390.38
2022-07-26T19:41:23.995Z,100392.78
2022-07-26T19:43:50.403Z,100414.16
2022-07-26T19:46:16.851Z,100408.00
2022-07-26T19:48:45.859Z,100416.09
2022-07-26T19:51:12.510Z,100426.28
2022-07-26T19:53:39.078Z,100429.91
2022-07-26T19:56:06.035Z,100438.84
2022-07-26T19:58:32.669Z,100413.94
2022-07-26T20:00:59.167Z,100434.78
2022-07-26T20:03:25.619Z,100439.00
2022-07-26T20:05:53.554Z,100457.06
2022-07-26T20:08:20.304Z,100472.94
2022-07-26T20:10:46.775Z,100505.72
2022-07-26T20:13:13.769Z,100500.13
2022-07-26T20:15:42.524Z,100506.44
2022-07-26T20:18:11.510Z,100515.75
2022-07-26T20:20:38.105Z,100527.03
2022-07-26T20:23:06.061Z,100539.09
2022-07-26T20:25:33.079Z,100534.78
2022-07-26T20:27:59.809Z,100542.69
2022-07-26T20:30:26.480Z,100549.44
2022-07-26T20:32:52.990Z,100561.47
2022-07-26T20:35:24.761Z,100574.03
2022-07-26T20:37:51.320Z,100572.41
2022-07-26T20:40:18.578Z,100567.38
2022-07-26T20:42:45.287Z,100576.03
2022-07-26T20:45:14.295Z,100579.66
2022-07-26T20:47:41.994Z,100584.38
2022-07-26T20:50:12.525Z,100587.47
2022-07-26T20:52:41.550Z,100590.78
2022-07-26T20:55:08.820Z,100589.69
2022-07-26T20:57:35.703Z,100591.34
2022-07-26T21:00:04.717Z,100593.84
2022-07-26T21:02:31.522Z,100591.91
2022-07-26T21:04:58.716Z,100588.56
2022-07-26T21:07:55.032Z,100596.91
2022-07-26T21:10:14.710Z,100597.44
2022-07-26T21:12:41.780Z,100594.06
2022-07-26T21:15:08.753Z,100589.88
2022-07-26T21:17:35.256Z,100592.38
2022-07-26T21:20:02.793Z,100585.91
2022-07-26T21:22:29.581Z,100580.03
2022-07-26T21:24:56.103Z,100573.84
2022-07-26T21:27:22.680Z,100575.78
2022-07-26T21:29:49.301Z,100572.94
2022-07-26T21:32:15.822Z,100577.28
2022-07-26T21:34:44.608Z,100572.56
2022-07-26T21:37:11.138Z,100562.47
2022-07-26T21:39:37.566Z,100567.44
2022-07-26T21:42:04.479Z,100575.22
2022-07-26T21:44:30.884Z,100569.09
2022-07-26T21:46:59.863Z,100573.22
2022-07-26T21:49:26.355Z,100574.59
2022-07-26T21:51:55.913Z,100576.22
2022-07-26T21:54:22.601Z,100570.28
2022-07-26T21:56:49.106Z,100573.91
2022-07-26T21:59:15.773Z,100565.25
2022-07-26T22:01:42.536Z,100580.25
2022-07-26T22:04:11.363Z,100571.03
2022-07-26T22:06:38.033Z,100556.22
2022-07-26T22:09:05.127Z,100569.78
2022-07-26T22:11:31.509Z,100563.06
2022-07-26T22:13:58.400Z,100565.59
2022-07-26T22:16:24.914Z,100563.69
2022-07-26T22:18:52.678Z,100571.41
2022-07-26T22:21:19.150Z,100566.38
2022-07-26T22:23:46.134Z,100558.28
2022-07-26T22:26:14.353Z,100561.88
2022-07-26T22:28:40.766Z,100562.97
2022-07-26T22:31:07.347Z,100558.50
2022-07-26T22:33:33.720Z,100542.88
2022-07-26T22:36:00.248Z,100548.97
2022-07-26T22:38:30.426Z,100545.34
2022-07-26T22:40:56.920Z,100543.84
2022-07-26T22:43:23.289Z,100550.41
2022-07-26T22:45:51.987Z,100542.06
2022-07-26T22:48:20.995Z,100534.78
2022-07-26T22:50:47.426Z,100523.88
2022-07-26T22:53:13.963Z,100521.31
2022-07-26T22:55:40.383Z,100516.78
2022-07-26T22:58:06.930Z,100520.06
2022-07-26T23:00:33.950Z,100496.69
2022-07-26T23:03:00.440Z,100504.91
2022-07-26T23:05:45.745Z,100484.81
2022-07-26T23:08:43.903Z,100493.06
2022-07-26T23:10:59.436Z,100499.56
2022-07-26T23:13:26.571Z,100485.94
2022-07-26T23:15:58.117Z,100481.41
2022-07-26T23:18:30.662Z,100479.81
2022-07-26T23:20:57.723Z,100483.16
2022-07-26T23:23:29.310Z,100485.38
2022-07-26T23:25:57.293Z,100489.38
2022-07-26T23:28:36.644Z,100494.41
2022-07-26T23:31:05.144Z,100483.94
2022-07-26T23:33:53.489Z,100492.16
2022-07-26T23:36:17.963Z,100494.00
2022-07-26T23:38:44.339Z,100483.44
2022-07-26T23:41:10.811Z,100482.75
2022-07-26T23:43:37.360Z,100519.56
2022-07-26T23:46:08.475Z,100496.63
2022-07-26T23:48:35.026Z,100496.19
2022-07-26T23:51:03.990Z,100490.66
2022-07-26T23:53:30.478Z,100491.91
2022-07-26T23:55:59.203Z,100499.44
2022-07-26T23:58:25.795Z,100493.88
